Time;durP1;ratioP1;P1;durP2;ratioP2;P2;SDS_P1;SDS_P2;PMS_P1;PMS_P2;Temp;Humidity;BMP_temperature;BMP_pressure;BME280_temperature;BME280_humidity;BME280_pressure;Samples;Min_cycle;Max_cycle;Signal;HPM_P1;HPM_P2
2020/12/11 00:00:54;;;;;;;41.00;20.73;;;;;;;0.16;92.09;100104.97;5054061;28;20029;-78
2020/12/11 00:03:19;;;;;;;38.03;19.90;;;;;;;0.16;91.73;100104.13;5039923;28;20037;-78
2020/12/11 00:05:45;;;;;;;28.50;17.90;;;;;;;0.12;91.98;100098.09;5066131;28;20040;-78
2020/12/11 00:08:11;;;;;;;29.50;17.88;;;;;;;0.16;92.04;100093.72;5043066;28;20036;-79
2020/12/11 00:10:36;;;;;;;36.20;19.08;;;;;;;0.15;91.69;100094.59;5063842;28;20085;-79
2020/12/11 00:13:02;;;;;;;33.65;19.98;;;;;;;0.15;91.96;100079.88;5023582;28;20033;-78
2020/12/11 00:15:27;;;;;;;33.97;17.92;;;;;;;0.18;91.76;100081.56;5057469;28;20025;-79
2020/12/11 00:17:52;;;;;;;41.47;20.90;;;;;;;0.16;91.77;100081.59;5046686;28;20735;-79
2020/12/11 00:20:17;;;;;;;34.03;19.42;;;;;;;0.20;91.63;100087.59;5056632;28;20516;-79
2020/12/11 00:22:43;;;;;;;36.20;19.52;;;;;;;0.16;91.79;100079.00;5059916;28;20057;-78
2020/12/11 00:25:08;;;;;;;37.60;19.90;;;;;;;0.15;91.72;100073.78;5046365;28;20035;-79
2020/12/11 00:27:33;;;;;;;33.45;18.80;;;;;;;0.14;91.71;100083.34;5056591;28;20025;-77
2020/12/11 00:29:58;;;;;;;31.55;17.00;;;;;;;0.15;91.79;100079.00;5044167;28;20025;-78
2020/12/11 00:32:24;;;;;;;38.22;19.55;;;;;;;0.13;91.76;100063.44;5024018;28;20033;-79
2020/12/11 00:34:49;;;;;;;34.15;18.67;;;;;;;0.13;91.76;100063.44;5042244;28;20012;-78
2020/12/11 00:37:14;;;;;;;32.72;19.25;;;;;;;0.12;91.98;100063.47;5042935;28;20603;-78
2020/12/11 00:39:40;;;;;;;38.60;19.42;;;;;;;0.07;92.09;100057.47;5042632;28;20083;-78
2020/12/11 00:42:05;;;;;;;32.92;18.20;;;;;;;0.09;92.02;100047.91;5027715;28;20040;-78
2020/12/11 00:44:30;;;;;;;35.28;17.98;;;;;;;0.08;91.92;100044.44;5024981;28;20029;-79
2020/12/11 00:46:55;;;;;;;34.92;17.17;;;;;;;0.06;91.97;100038.44;5037148;28;20663;-79
2020/12/11 00:49:21;;;;;;;35.35;20.70;;;;;;;0.01;92.11;100029.84;5062030;28;20028;-79
2020/12/11 00:51:46;;;;;;;31.73;18.73;;;;;;;-0.01;92.26;100029.00;5028668;28;20036;-78
2020/12/11 00:54:11;;;;;;;37.47;20.00;;;;;;;0.01;92.21;100019.44;5054431;28;20037;-78
2020/12/11 00:56:37;;;;;;;31.35;18.27;;;;;;;-0.02;92.34;100014.28;5059685;28;20029;-79
2020/12/11 00:59:02;;;;;;;34.00;17.75;;;;;;;-0.01;92.28;100008.19;5028419;28;20037;-79
2020/12/11 01:01:27;;;;;;;34.22;19.67;;;;;;;0.00;92.22;100004.75;5017975;28;20058;-79
2020/12/11 01:03:53;;;;;;;32.65;17.50;;;;;;;-0.04;92.09;99996.13;5039181;28;20099;-79
2020/12/11 01:06:18;;;;;;;35.03;19.73;;;;;;;-0.05;92.24;99994.41;5030664;28;20042;-78
2020/12/11 01:08:43;;;;;;;36.95;19.50;;;;;;;-0.05;92.27;99989.22;5029687;28;20028;-78
2020/12/11 01:11:09;;;;;;;32.38;17.98;;;;;;;-0.07;92.13;99982.31;5044759;28;20048;-78
2020/12/11 01:13:34;;;;;;;39.10;18.55;;;;;;;-0.12;92.51;99979.78;5029053;28;20028;-78
2020/12/11 01:15:59;;;;;;;39.20;18.17;;;;;;;-0.14;92.47;99968.56;5029393;28;20477;-79
2020/12/11 01:18:25;;;;;;;35.42;18.15;;;;;;;-0.18;92.73;99964.31;5026937;28;20025;-79
2020/12/11 01:20:50;;;;;;;36.35;20.58;;;;;;;-0.22;92.95;99949.63;5008324;28;20025;-79
2020/12/11 01:23:15;;;;;;;33.28;19.17;;;;;;;-0.18;92.81;99948.72;5053712;28;20041;-79
2020/12/11 01:25:40;;;;;;;30.42;18.20;;;;;;;-0.19;92.73;99943.56;5024424;28;20025;-79
2020/12/11 01:28:06;;;;;;;34.92;19.27;;;;;;;-0.20;92.67;99939.22;5066520;28;20047;-79
2020/12/11 01:30:32;;;;;;;28.83;18.13;;;;;;;-0.27;92.79;99938.47;5059938;28;20389;-79
2020/12/11 01:32:57;;;;;;;37.08;17.75;;;;;;;-0.21;92.52;99942.69;5043646;28;20037;-79
2020/12/11 01:35:23;;;;;;;35.97;19.50;;;;;;;-0.23;92.63;99937.53;5026196;28;20028;-78
2020/12/11 01:37:48;;;;;;;30.30;18.13;;;;;;;-0.30;92.75;99921.19;5065801;28;20095;-79
2020/12/11 01:40:13;;;;;;;29.73;17.42;;;;;;;-0.27;92.61;99915.09;5024043;28;20602;-79
2020/12/11 01:42:38;;;;;;;35.92;19.58;;;;;;;-0.33;92.84;99907.41;5066282;28;20108;-79
2020/12/11 01:45:04;;;;;;;41.38;18.23;;;;;;;-0.29;92.84;99909.06;5060049;28;20374;-79
2020/12/11 01:47:29;;;;;;;34.28;17.77;;;;;;;-0.31;92.93;99905.63;5040252;28;20036;-79
2020/12/11 01:49:55;;;;;;;38.80;19.20;;;;;;;-0.35;92.92;99912.63;5044130;28;20029;-80
2020/12/11 01:52:21;;;;;;;35.33;20.48;;;;;;;-0.39;93.19;99897.97;5048019;28;20025;-79
2020/12/11 01:54:47;;;;;;;34.15;18.15;;;;;;;-0.37;93.09;99896.19;5044324;28;20051;-79
2020/12/11 01:57:22;;;;;;;33.92;19.65;;;;;;;-0.37;92.95;99896.19;5041475;28;20116;-79
2020/12/11 01:59:52;;;;;;;34.10;19.37;;;;;;;-0.37;92.98;99898.78;5058096;28;20017;-79
2020/12/11 02:02:19;;;;;;;32.85;18.55;;;;;;;-0.39;93.17;99890.19;5059348;28;20017;-79
2020/12/11 02:04:44;;;;;;;33.33;17.52;;;;;;;-0.36;92.84;99892.72;5027600;28;20029;-80
2020/12/11 02:07:09;;;;;;;27.80;16.25;;;;;;;-0.35;92.71;99885.78;5027468;28;20083;-80
2020/12/11 02:09:35;;;;;;;28.48;15.52;;;;;;;-0.38;92.61;99876.31;5058179;28;20047;-79
2020/12/11 02:12:03;;;;;;;29.17;17.10;;;;;;;-0.34;92.65;99892.69;5043376;28;20077;-79
2020/12/11 02:14:29;;;;;;;34.03;17.13;;;;;;;-0.34;92.61;99890.97;5061247;28;20063;-79
2020/12/11 02:17:07;;;;;;;34.30;17.48;;;;;;;-0.30;92.23;99894.38;5047188;28;20060;-79
2020/12/11 02:19:33;;;;;;;28.90;16.27;;;;;;;-0.36;92.39;99884.91;5048611;28;20101;-80
2020/12/11 02:22:01;;;;;;;36.65;19.48;;;;;;;-0.35;92.47;99881.47;5033473;28;20035;-79
2020/12/11 02:24:26;;;;;;;33.30;17.77;;;;;;;-0.35;92.40;99884.06;5039275;28;20036;-79
2020/12/11 02:26:54;;;;;;;35.67;20.05;;;;;;;-0.38;92.74;99880.66;5067069;28;20028;-79
2020/12/11 02:29:19;;;;;;;30.58;17.70;;;;;;;-0.34;92.46;99872.78;5046277;28;20478;-79
2020/12/11 02:31:44;;;;;;;34.85;18.50;;;;;;;-0.32;92.45;99872.75;5023232;28;20132;-80
2020/12/11 02:34:10;;;;;;;36.97;18.50;;;;;;;-0.28;92.17;99861.44;5052985;28;20083;-79
2020/12/11 02:36:35;;;;;;;32.00;18.73;;;;;;;-0.31;91.97;99866.66;5049898;28;20078;-80
2020/12/11 02:39:00;;;;;;;32.55;16.95;;;;;;;-0.29;92.04;99851.94;5036170;28;20025;-79
2020/12/11 02:41:25;;;;;;;32.17;17.27;;;;;;;-0.25;91.91;99853.63;5059875;28;20035;-79
2020/12/11 02:43:51;;;;;;;30.23;16.70;;;;;;;-0.31;91.72;99858.88;5016977;28;20021;-80
2020/12/11 02:46:16;;;;;;;26.73;14.90;;;;;;;-0.21;91.82;99862.19;5056455;28;20082;-79
2020/12/11 02:48:41;;;;;;;31.98;18.25;;;;;;;-0.17;91.51;99862.13;5057722;28;20020;-79
2020/12/11 02:51:06;;;;;;;31.00;17.13;;;;;;;-0.08;91.26;99853.34;5010249;28;20549;-80
2020/12/11 02:53:32;;;;;;;30.70;13.85;;;;;;;-0.02;90.80;99843.69;5025589;28;20040;-80
2020/12/11 02:55:58;;;;;;;26.08;14.40;;;;;;;0.03;90.68;99841.00;5041754;28;20025;-79
2020/12/11 02:58:23;;;;;;;30.20;16.48;;;;;;;0.05;90.65;99834.06;5039351;28;20055;-79
2020/12/11 03:06:37;;;;;;;31.90;17.48;;;;;;;-0.07;90.73;99798.75;5055616;28;20048;-80
2020/12/11 03:09:03;;;;;;;30.00;17.08;;;;;;;-0.10;90.79;99780.63;5040512;28;20029;-79
2020/12/11 03:11:28;;;;;;;33.30;17.95;;;;;;;-0.13;91.13;99785.03;5048727;28;20029;-79
2020/12/11 03:13:55;;;;;;;33.17;18.98;;;;;;;-0.18;91.52;99773.84;5041242;28;20485;-80
2020/12/11 03:16:20;;;;;;;33.20;18.42;;;;;;;-0.17;91.26;99760.84;5056033;28;20029;-80
2020/12/11 03:18:47;;;;;;;27.17;16.30;;;;;;;-0.15;91.08;99756.50;5040824;28;20033;-80
2020/12/11 03:21:13;;;;;;;32.55;17.75;;;;;;;-0.14;91.11;99757.34;5036653;28;20705;-79
2020/12/11 03:23:38;;;;;;;25.63;15.48;;;;;;;-0.13;91.35;99753.84;5025070;28;558986;-79
2020/12/11 03:26:04;;;;;;;25.52;14.00;;;;;;;-0.10;91.02;99757.25;5067049;28;20061;-79
2020/12/11 03:28:31;;;;;;;30.60;17.02;;;;;;;-0.08;91.23;99746.84;5053903;28;20041;-79
2020/12/11 03:30:56;;;;;;;21.05;12.75;;;;;;;-0.05;90.78;99742.44;5059840;28;20037;-80
2020/12/11 03:33:22;;;;;;;28.75;15.82;;;;;;;-0.04;90.67;99746.75;5040446;28;20490;-79
2020/12/11 03:35:47;;;;;;;30.17;17.90;;;;;;;-0.03;90.41;99734.63;5060140;28;20025;-79
2020/12/11 03:38:12;;;;;;;22.60;11.63;;;;;;;0.06;90.24;99729.25;5050395;28;20048;-80
2020/12/11 03:40:38;;;;;;;30.73;16.80;;;;;;;0.06;90.25;99731.00;5044236;28;20123;-80
2020/12/11 03:43:03;;;;;;;28.63;17.15;;;;;;;-0.01;90.36;99704.25;5040108;28;20024;-79
2020/12/11 03:45:28;;;;;;;26.75;14.23;;;;;;;0.10;89.79;99710.13;5048014;28;20017;-79
2020/12/11 03:47:53;;;;;;;26.23;14.38;;;;;;;0.09;90.14;99710.13;5027002;28;20647;-79
2020/12/11 03:50:18;;;;;;;27.17;16.35;;;;;;;0.07;90.37;99704.13;5043872;28;20029;-79
2020/12/11 03:52:44;;;;;;;26.42;14.75;;;;;;;0.16;89.74;99694.41;5045262;28;20077;-79
2020/12/11 03:55:09;;;;;;;26.00;14.02;;;;;;;0.32;89.06;99692.34;5043798;28;20037;-80
2020/12/11 03:57:34;;;;;;;25.63;13.85;;;;;;;0.39;88.64;99688.72;5058835;28;20404;-80
2020/12/11 03:59:59;;;;;;;29.33;15.25;;;;;;;0.42;88.71;99674.81;5059103;28;20032;-79
2020/12/11 04:02:25;;;;;;;23.90;15.05;;;;;;;0.47;88.66;99672.97;5058788;28;20033;-80
2020/12/11 04:04:50;;;;;;;25.95;14.93;;;;;;;0.51;88.07;99665.06;5042251;28;20036;-80
2020/12/11 04:07:16;;;;;;;28.10;15.85;;;;;;;0.55;88.14;99657.19;5030146;28;20047;-80
2020/12/11 04:09:41;;;;;;;27.00;14.48;;;;;;;0.61;87.85;99649.25;5045881;28;20035;-80
2020/12/11 04:12:06;;;;;;;28.40;14.40;;;;;;;0.65;87.65;99646.56;5034556;28;20035;-80
2020/12/11 04:14:32;;;;;;;25.30;15.13;;;;;;;0.65;87.81;99632.66;5045347;28;20021;-80
2020/12/11 04:16:59;;;;;;;23.15;14.10;;;;;;;0.69;87.27;99616.09;5045608;28;20028;-79
2020/12/11 04:19:25;;;;;;;24.85;13.18;;;;;;;0.75;87.50;99629.84;5048445;28;20492;-79
2020/12/11 04:21:51;;;;;;;23.52;12.82;;;;;;;0.76;87.21;99620.28;5038412;28;20052;-79
2020/12/11 04:24:18;;;;;;;23.95;13.95;;;;;;;0.76;87.24;99620.28;5048888;28;20032;-80
2020/12/11 04:26:44;;;;;;;26.00;14.63;;;;;;;0.78;87.23;99611.53;5058582;28;20381;-79
2020/12/11 04:29:10;;;;;;;25.42;14.90;;;;;;;0.81;86.98;99607.19;5041936;28;20112;-86
2020/12/11 04:31:35;;;;;;;24.17;12.43;;;;;;;0.80;87.00;99603.69;5040680;28;20048;-85
2020/12/11 04:34:00;;;;;;;28.48;15.68;;;;;;;0.81;87.09;99604.59;5039386;28;20062;-86
2020/12/11 04:36:26;;;;;;;22.17;14.10;;;;;;;0.80;86.92;99576.84;5048559;28;20120;-85
2020/12/11 04:38:51;;;;;;;23.33;13.68;;;;;;;0.83;86.80;99577.63;5021952;28;20029;-85
2020/12/11 04:41:18;;;;;;;26.55;14.60;;;;;;;0.84;87.22;99581.06;5033477;28;20544;-84
2020/12/11 04:43:44;;;;;;;25.92;13.23;;;;;;;0.89;86.65;99574.00;5039243;28;20028;-85
2020/12/11 04:46:09;;;;;;;25.05;13.77;;;;;;;0.94;86.57;99570.41;5054868;28;20037;-85
2020/12/11 04:48:35;;;;;;;20.58;12.48;;;;;;;0.94;86.81;99570.41;5057680;28;20029;-85
2020/12/11 04:51:02;;;;;;;22.77;13.30;;;;;;;0.96;86.63;99559.97;5032979;28;20032;-85
2020/12/11 04:53:33;;;;;;;23.00;13.48;;;;;;;0.95;86.85;99569.50;5056981;28;20548;-85
2020/12/11 04:56:02;;;;;;;19.90;12.98;;;;;;;0.99;86.72;99567.69;5034229;28;20035;-84
2020/12/11 04:58:30;;;;;;;21.85;11.55;;;;;;;1.02;86.66;99557.22;5017903;28;20028;-85
2020/12/11 05:01:01;;;;;;;22.65;12.85;;;;;;;1.01;86.82;99545.09;5059650;28;20036;-85
2020/12/11 05:03:29;;;;;;;22.73;13.63;;;;;;;1.04;86.91;99545.84;5016898;28;20029;-83
2020/12/11 05:05:55;;;;;;;21.25;13.15;;;;;;;1.03;86.90;99536.34;5039580;28;20388;-82
2020/12/11 05:08:21;;;;;;;21.73;14.25;;;;;;;1.06;87.06;99537.19;5057002;28;20025;-85
2020/12/11 05:10:47;;;;;;;22.85;13.00;;;;;;;1.06;87.08;99538.03;5058118;28;20108;-83
2020/12/11 05:13:20;;;;;;;23.58;12.32;;;;;;;1.07;86.84;99524.13;5056399;28;20481;-84
2020/12/11 05:16:08;;;;;;;19.05;12.05;;;;;;;1.10;87.01;99518.81;5042449;28;20136;-85
2020/12/11 05:18:35;;;;;;;21.02;11.65;;;;;;;1.09;86.63;99516.25;5053652;28;20029;-83
2020/12/11 05:21:22;;;;;;;25.52;14.25;;;;;;;1.10;86.95;99508.41;5061273;28;20557;-83
2020/12/11 05:23:56;;;;;;;21.65;11.80;;;;;;;1.12;86.75;99511.84;5057651;28;20048;-84
2020/12/11 05:26:22;;;;;;;26.40;13.90;;;;;;;1.12;87.03;99510.97;5054601;28;20029;-83
2020/12/11 05:28:47;;;;;;;22.98;12.18;;;;;;;1.10;86.89;99508.41;5024556;28;20032;-79
2020/12/11 05:31:14;;;;;;;24.70;15.15;;;;;;;1.11;86.87;99510.13;5036840;28;20024;-78
2020/12/11 05:34:13;;;;;;;21.75;12.23;;;;;;;1.11;86.67;99501.47;5055923;28;20036;-78
2020/12/11 05:36:49;;;;;;;25.42;13.60;;;;;;;1.14;86.86;99494.41;5040178;28;20028;-78
2020/12/11 05:39:30;;;;;;;23.52;14.27;;;;;;;1.15;86.92;99498.72;5053307;28;20028;-78
2020/12/11 05:41:56;;;;;;;25.98;15.23;;;;;;;1.16;86.86;99495.25;5045249;28;20496;-79
2020/12/11 05:44:28;;;;;;;21.55;12.40;;;;;;;1.20;86.84;99498.59;5050539;28;20114;-79
2020/12/11 05:46:54;;;;;;;22.75;12.63;;;;;;;1.21;86.76;99493.38;5036682;28;20033;-79
2020/12/11 05:49:24;;;;;;;23.40;14.05;;;;;;;1.21;86.87;99489.91;5042143;28;20488;-79
2020/12/11 05:51:56;;;;;;;24.65;11.73;;;;;;;1.20;86.47;99489.03;5031525;28;20035;-78
2020/12/11 05:54:22;;;;;;;23.70;13.18;;;;;;;1.17;86.98;99477.88;5057695;28;20013;-79
2020/12/11 05:56:50;;;;;;;21.75;12.93;;;;;;;1.21;87.05;99475.16;5058562;28;20028;-78
2020/12/11 05:59:19;;;;;;;25.48;15.38;;;;;;;1.20;87.22;99468.22;5062380;28;20155;-78
2020/12/11 06:01:47;;;;;;;26.08;14.93;;;;;;;1.17;87.19;99457.91;5038676;28;20017;-79
2020/12/11 06:04:14;;;;;;;18.08;10.85;;;;;;;1.21;87.18;99449.13;5048332;28;20055;-78
2020/12/11 06:06:41;;;;;;;22.85;14.35;;;;;;;1.27;87.43;99458.50;5062091;28;20036;-78
2020/12/11 06:09:10;;;;;;;21.75;13.15;;;;;;;1.30;87.39;99455.78;5044618;28;20035;-78
2020/12/11 06:11:41;;;;;;;28.90;13.02;;;;;;;1.31;86.96;99451.47;5059057;28;20120;-78
2020/12/11 06:14:12;;;;;;;23.02;13.60;;;;;;;1.32;87.16;99438.41;5058773;28;20498;-79
2020/12/11 06:16:38;;;;;;;18.33;10.23;;;;;;;1.35;86.96;99437.44;5059040;28;20029;-78
2020/12/11 06:19:06;;;;;;;21.65;13.35;;;;;;;1.33;87.27;99434.03;5044405;28;20407;-79
2020/12/11 06:21:32;;;;;;;19.45;12.55;;;;;;;1.38;87.37;99433.00;5026233;28;20036;-79
2020/12/11 06:23:57;;;;;;;18.77;11.88;;;;;;;1.41;87.18;99424.28;5060419;28;20124;-78
2020/12/11 06:26:22;;;;;;;21.75;14.15;;;;;;;1.41;87.30;99417.31;5041431;28;20028;-79
2020/12/11 06:28:49;;;;;;;25.75;13.20;;;;;;;1.42;87.33;99418.16;5039344;28;20626;-79
2020/12/11 06:31:16;;;;;;;24.55;14.75;;;;;;;1.46;87.28;99415.41;5037924;28;20021;-79
2020/12/11 06:33:45;;;;;;;19.75;11.48;;;;;;;1.43;87.05;99410.28;5051382;28;20037;-78
2020/12/11 06:36:12;;;;;;;20.80;12.93;;;;;;;1.42;87.41;99410.34;5054598;28;20021;-80
2020/12/11 06:38:41;;;;;;;21.08;11.88;;;;;;;1.42;87.29;99415.56;5033498;28;20031;-78
2020/12/11 06:41:06;;;;;;;23.38;11.75;;;;;;;1.41;87.46;99404.28;5026037;28;20455;-79
2020/12/11 06:43:40;;;;;;;22.77;12.63;;;;;;;1.45;87.47;99407.63;5040518;28;20032;-81
2020/12/11 06:46:15;;;;;;;21.05;10.85;;;;;;;1.44;87.54;99406.78;5012607;28;20017;-83
2020/12/11 06:49:03;;;;;;;20.30;13.03;;;;;;;1.47;87.44;99392.84;4996480;28;20036;-83
2020/12/11 06:51:29;;;;;;;23.73;14.90;;;;;;;1.50;87.42;99392.72;5003941;28;20048;-84
2020/12/11 06:53:54;;;;;;;20.20;11.88;;;;;;;1.50;87.57;99384.91;5009639;28;20028;-83
2020/12/11 06:56:41;;;;;;;24.42;14.63;;;;;;;1.47;87.65;99398.88;4994395;28;20170;-84
2020/12/11 06:59:37;;;;;;;21.42;12.68;;;;;;;1.50;87.51;99390.13;5025981;28;20040;-83
2020/12/11 07:02:16;;;;;;;21.58;12.02;;;;;;;1.50;87.52;99390.13;5032860;28;20524;-84
2020/12/11 07:04:45;;;;;;;21.52;13.48;;;;;;;1.52;87.62;99386.59;5044249;28;20369;-83
2020/12/11 07:07:11;;;;;;;20.63;11.73;;;;;;;1.52;87.54;99389.19;5000163;28;20070;-83
2020/12/11 07:09:41;;;;;;;22.85;11.88;;;;;;;1.53;87.46;99395.25;5049138;28;20501;-83
2020/12/11 07:12:07;;;;;;;21.20;12.68;;;;;;;1.51;87.70;99392.69;5000863;28;20036;-83
2020/12/11 07:14:32;;;;;;;22.08;14.15;;;;;;;1.52;87.89;99378.78;5018588;28;20020;-83
2020/12/11 07:16:58;;;;;;;17.67;10.52;;;;;;;1.52;87.59;99373.56;4986782;28;20167;-83
2020/12/11 07:19:23;;;;;;;22.45;12.85;;;;;;;1.54;88.07;99389.13;5016812;28;20116;-82
2020/12/11 07:21:49;;;;;;;21.48;12.30;;;;;;;1.51;87.94;99376.22;5011444;28;20662;-84
2020/12/11 07:24:15;;;;;;;20.75;13.23;;;;;;;1.49;87.94;99373.66;5052243;28;20075;-84
2020/12/11 07:26:41;;;;;;;27.17;12.05;;;;;;;1.51;88.38;99368.41;5043438;28;20032;-83
2020/12/11 07:29:15;;;;;;;21.23;13.10;;;;;;;1.52;88.75;99373.56;5041080;28;20028;-84
2020/12/11 07:31:43;;;;;;;21.05;11.70;;;;;;;1.51;88.83;99368.41;5026652;28;20557;-83
2020/12/11 07:34:17;;;;;;;20.45;13.15;;;;;;;1.51;89.00;99365.81;5000494;28;20025;-83
2020/12/11 07:36:56;;;;;;;21.58;12.20;;;;;;;1.57;88.73;99375.19;5018697;28;20028;-83
2020/12/11 07:39:26;;;;;;;21.80;12.57;;;;;;;1.57;88.72;99368.22;5043812;28;20086;-84
2020/12/11 07:41:54;;;;;;;21.55;10.75;;;;;;;1.59;88.86;99360.34;5045139;28;20584;-83
2020/12/11 07:44:22;;;;;;;29.23;15.00;;;;;;;1.57;89.98;99364.75;5029866;28;20017;-83
2020/12/11 07:46:48;;;;;;;20.88;13.38;;;;;;;1.51;90.78;99363.22;5048034;28;20029;-83
2020/12/11 07:49:13;;;;;;;20.48;11.35;;;;;;;1.43;91.74;99365.19;5026261;28;20040;-82
2020/12/11 07:51:48;;;;;;;27.00;16.00;;;;;;;1.37;93.04;99362.78;5040939;28;20021;-82
2020/12/11 07:54:14;;;;;;;20.48;13.00;;;;;;;1.32;93.60;99359.47;5038776;28;20027;-82
2020/12/11 07:56:40;;;;;;;23.52;13.45;;;;;;;1.34;93.84;99352.44;5039076;28;20017;-83
2020/12/11 07:59:11;;;;;;;24.95;15.75;;;;;;;1.33;94.28;99353.34;5045110;28;20132;-82
2020/12/11 08:01:37;;;;;;;27.75;14.30;;;;;;;1.29;94.86;99347.38;5041730;28;20767;-83
2020/12/11 08:04:03;;;;;;;25.35;14.77;;;;;;;1.29;95.27;99353.44;5054548;28;20037;-81
2020/12/11 08:06:28;;;;;;;24.85;14.82;;;;;;;1.24;96.11;99339.69;5047626;28;20036;-81
2020/12/11 08:08:53;;;;;;;25.08;16.35;;;;;;;1.29;96.38;99340.41;5049970;28;20555;-81
2020/12/11 08:11:24;;;;;;;28.50;16.30;;;;;;;1.29;96.66;99331.75;5032921;28;20020;-81
2020/12/11 08:14:04;;;;;;;27.17;17.13;;;;;;;1.30;96.89;99325.63;5051276;28;20032;-82
2020/12/11 08:16:30;;;;;;;27.25;17.10;;;;;;;1.36;96.99;99322.88;5049342;28;20063;-82
2020/12/11 08:18:57;;;;;;;27.45;16.88;;;;;;;1.40;96.73;99316.66;5052653;28;20033;-82
2020/12/11 08:21:31;;;;;;;24.92;15.90;;;;;;;1.44;96.33;99313.06;5049962;28;20025;-82
2020/12/11 08:23:57;;;;;;;25.45;15.98;;;;;;;1.46;95.92;99310.44;5039581;28;20040;-82
2020/12/11 08:26:24;;;;;;;25.60;14.10;;;;;;;1.49;95.89;99302.50;5040727;28;20028;-82
2020/12/11 08:28:51;;;;;;;29.83;15.57;;;;;;;1.51;95.57;99301.56;5034425;28;20044;-80
2020/12/11 08:31:20;;;;;;;24.83;14.73;;;;;;;1.58;95.57;99302.22;5033655;28;20095;-79
2020/12/11 08:33:47;;;;;;;25.88;15.38;;;;;;;1.67;95.53;99306.28;5041928;28;20025;-79
2020/12/11 08:36:25;;;;;;;22.23;14.65;;;;;;;1.67;94.96;99304.53;5051112;28;20029;-79
2020/12/11 08:39:14;;;;;;;22.35;12.23;;;;;;;1.72;93.91;99301.75;5050734;28;20028;-81
2020/12/11 08:41:49;;;;;;;21.60;13.15;;;;;;;1.76;93.80;99303.38;5030314;28;20107;-79
2020/12/11 08:44:33;;;;;;;25.13;14.43;;;;;;;1.88;93.69;99294.28;5045576;28;20439;-81
2020/12/11 08:47:10;;;;;;;21.48;13.90;;;;;;;1.93;93.28;99298.44;5044528;28;20021;-80
2020/12/11 08:49:45;;;;;;;22.55;13.30;;;;;;;1.89;93.10;99286.41;5051423;28;20024;-80
2020/12/11 08:52:11;;;;;;;26.77;14.65;;;;;;;1.96;92.78;99292.28;5050548;28;20029;-80
2020/12/11 08:54:36;;;;;;;25.42;14.27;;;;;;;2.02;92.73;99289.47;5033996;28;20112;-80
2020/12/11 08:57:02;;;;;;;21.10;11.88;;;;;;;2.07;92.61;99292.75;5031507;28;20060;-80
2020/12/11 08:59:27;;;;;;;22.48;13.60;;;;;;;2.02;92.35;99282.50;5050414;28;20743;-80
2020/12/11 09:01:52;;;;;;;19.25;11.05;;;;;;;2.17;92.06;99288.94;5034573;28;20504;-80
2020/12/11 09:04:17;;;;;;;19.02;11.63;;;;;;;2.17;91.53;99275.06;5045931;28;20125;-81
2020/12/11 09:06:44;;;;;;;16.27;11.02;;;;;;;2.19;91.30;99279.28;5050997;28;20036;-80
2020/12/11 09:09:09;;;;;;;13.32;8.50;;;;;;;2.27;90.92;99287.72;5039732;28;20383;-79
2020/12/11 09:11:34;;;;;;;17.13;10.30;;;;;;;2.24;90.89;99285.19;5051575;28;20032;-79
2020/12/11 09:14:00;;;;;;;18.50;12.18;;;;;;;2.25;91.08;99280.84;5055366;28;20037;-80
2020/12/11 09:16:25;;;;;;;15.05;10.40;;;;;;;2.31;91.23;99267.59;5038209;28;20515;-81
2020/12/11 09:18:50;;;;;;;17.40;10.25;;;;;;;2.37;90.62;99283.03;5052391;28;20029;-80
2020/12/11 09:21:15;;;;;;;16.15;10.90;;;;;;;2.35;90.83;99271.78;5037635;28;20424;-79
2020/12/11 09:23:41;;;;;;;14.48;9.30;;;;;;;2.37;90.52;99280.41;5030331;28;20049;-79
2020/12/11 09:26:06;;;;;;;14.95;9.57;;;;;;;2.40;90.74;99274.22;5049587;28;20465;-79
2020/12/11 09:28:31;;;;;;;20.83;12.00;;;;;;;2.35;91.16;99282.22;5057883;28;20101;-83
2020/12/11 09:30:56;;;;;;;16.52;9.18;;;;;;;2.32;91.51;99274.50;5062249;28;20545;-83
2020/12/11 09:33:26;;;;;;;20.02;11.43;;;;;;;2.32;92.33;99285.78;5057141;28;20064;-81
2020/12/11 09:35:51;;;;;;;20.10;11.23;;;;;;;2.19;92.68;99276.69;5051106;28;20040;-83
2020/12/11 09:38:16;;;;;;;15.77;10.25;;;;;;;2.23;92.82;99278.28;5032721;28;20075;-81
2020/12/11 09:43:42;;;;;;;16.50;11.23;;;;;;;2.30;92.66;99279.75;5039747;28;20056;-83
2020/12/11 09:48:57;;;;;;;21.02;11.75;;;;;;;2.32;92.87;99272.75;5033264;28;20072;-82
2020/12/11 09:54:09;;;;;;;20.38;11.82;;;;;;;2.40;92.74;99271.63;5050858;28;20040;-82
2020/12/11 09:56:34;;;;;;;18.60;10.52;;;;;;;2.48;92.99;99266.97;5053059;28;20143;-82
2020/12/11 10:01:52;;;;;;;17.88;11.38;;;;;;;2.48;93.45;99265.22;5044906;28;20032;-82
2020/12/11 10:04:18;;;;;;;18.10;11.27;;;;;;;2.46;94.04;99267.06;5059189;28;20043;-82
2020/12/11 10:06:43;;;;;;;18.73;12.43;;;;;;;2.42;94.13;99267.22;5031531;28;20020;-82
2020/12/11 10:09:09;;;;;;;17.48;10.88;;;;;;;2.38;94.71;99256.03;5042147;28;20040;-82
2020/12/11 10:11:35;;;;;;;18.35;12.65;;;;;;;2.35;95.07;99256.13;5061411;28;20048;-82
2020/12/11 10:14:15;;;;;;;20.20;13.18;;;;;;;2.36;95.22;99260.47;5065421;28;20025;-81
2020/12/11 10:16:41;;;;;;;17.00;11.00;;;;;;;2.41;95.34;99250.72;5048376;28;20043;-83
2020/12/11 10:19:06;;;;;;;19.85;12.27;;;;;;;2.44;95.34;99247.13;5065317;28;20493;-82
2020/12/11 10:21:32;;;;;;;19.35;11.73;;;;;;;2.47;95.42;99244.44;5059651;28;20063;-82
2020/12/11 10:23:57;;;;;;;16.92;10.43;;;;;;;2.45;95.70;99246.22;5059376;28;20129;-83
2020/12/11 10:26:22;;;;;;;20.17;12.48;;;;;;;2.49;95.60;99237.38;5033532;28;20033;-83
2020/12/11 10:28:47;;;;;;;19.13;11.63;;;;;;;2.48;95.57;99236.53;5061354;28;20500;-83
2020/12/11 10:31:13;;;;;;;16.15;10.05;;;;;;;2.46;95.53;99238.38;5055691;28;20028;-82
2020/12/11 10:33:38;;;;;;;19.05;13.27;;;;;;;2.50;95.66;99226.88;5056425;28;20088;-83
2020/12/11 10:36:03;;;;;;;19.95;11.77;;;;;;;2.52;95.66;99229.47;5062714;28;20033;-82
2020/12/11 10:38:29;;;;;;;18.90;12.02;;;;;;;2.49;95.94;99219.13;5050076;28;20021;-82
2020/12/11 10:40:54;;;;;;;18.95;12.77;;;;;;;2.51;95.83;99209.47;5020203;28;20090;-83
2020/12/11 10:43:19;;;;;;;18.10;9.60;;;;;;;2.57;95.87;99198.84;5046393;28;20051;-84
2020/12/11 10:45:44;;;;;;;18.85;12.13;;;;;;;2.55;96.22;99203.25;5051131;28;20468;-82
2020/12/11 10:48:10;;;;;;;18.58;12.20;;;;;;;2.56;96.06;99199.72;5047707;28;20059;-84
2020/12/11 10:50:35;;;;;;;20.98;13.10;;;;;;;2.57;96.36;99196.22;5033482;28;20485;-84
2020/12/11 10:53:00;;;;;;;18.88;11.85;;;;;;;2.66;96.17;99190.66;5056554;28;20113;-83
2020/12/11 10:55:26;;;;;;;20.42;12.43;;;;;;;2.69;95.77;99189.69;5046890;28;20470;-83
2020/12/11 10:57:52;;;;;;;18.20;11.82;;;;;;;2.70;95.90;99186.16;5057031;28;20029;-84
2020/12/11 11:00:17;;;;;;;18.38;12.82;;;;;;;2.69;96.18;99182.72;5054952;28;20480;-83
2020/12/11 11:02:44;;;;;;;18.33;12.40;;;;;;;2.68;96.32;99174.94;5056654;28;20112;-83
2020/12/11 11:05:10;;;;;;;17.80;10.68;;;;;;;2.72;95.64;99171.31;5014306;28;20028;-83
2020/12/11 11:07:35;;;;;;;16.55;10.80;;;;;;;2.74;95.96;99166.88;5058761;28;20082;-82
2020/12/11 11:10:15;;;;;;;18.40;11.98;;;;;;;2.76;95.90;99165.03;5053335;28;20567;-85
2020/12/11 11:12:48;;;;;;;19.42;12.10;;;;;;;2.80;95.99;99161.41;5054120;28;20404;-86
2020/12/11 11:15:30;;;;;;;17.17;12.10;;;;;;;2.90;95.60;99152.31;5029697;28;20035;-82
2020/12/11 11:18:05;;;;;;;25.10;12.05;;;;;;;2.97;95.69;99155.53;5057249;28;20029;-85
2020/12/11 11:20:52;;;;;;;17.58;11.90;;;;;;;3.01;95.95;99144.03;5060862;28;20519;-83
2020/12/11 11:23:24;;;;;;;21.55;13.40;;;;;;;2.94;95.73;99143.44;5052028;28;20049;-84
2020/12/11 11:26:06;;;;;;;22.60;12.80;;;;;;;3.11;95.66;99143.63;5060728;28;20023;-84
2020/12/11 11:28:32;;;;;;;17.73;10.48;;;;;;;3.08;95.28;99133.31;5056937;28;20025;-84
2020/12/11 11:30:57;;;;;;;17.73;11.68;;;;;;;3.11;95.83;99133.19;5047306;28;20088;-83
2020/12/11 11:33:23;;;;;;;17.17;11.73;;;;;;;3.13;95.53;99132.28;5052850;28;20025;-84
2020/12/11 11:35:49;;;;;;;18.95;10.73;;;;;;;3.11;95.12;99130.59;5054816;28;20021;-82
2020/12/11 11:38:16;;;;;;;17.02;12.05;;;;;;;3.17;95.54;99121.66;5062730;28;20028;-83
2020/12/11 11:40:41;;;;;;;17.17;12.18;;;;;;;3.25;95.29;99131.75;5043718;28;20558;-82